sensor_id;sensor_type;location;lat;lon;timestamp;P1;durP1;ratioP1;P2;durP2;ratioP2
77099;SDS011;66602;48.922;2.414;2023-02-13T00:01:52;36.67;;;18.00;;
77099;SDS011;66602;48.922;2.414;2023-02-13T00:04:18;27.67;;;17.00;;
77099;SDS011;66602;48.922;2.414;2023-02-13T00:06:44;33.65;;;18.30;;
77099;SDS011;66602;48.922;2.414;2023-02-13T00:09:11;31.80;;;18.25;;
77099;SDS011;66602;48.922;2.414;2023-02-13T00:11:38;41.95;;;21.27;;
77099;SDS011;66602;48.922;2.414;2023-02-13T00:14:03;37.72;;;19.95;;
77099;SDS011;66602;48.922;2.414;2023-02-13T00:16:29;31.25;;;19.13;;
77099;SDS011;66602;48.922;2.414;2023-02-13T00:18:54;28.70;;;17.50;;
77099;SDS011;66602;48.922;2.414;2023-02-13T00:21:20;26.15;;;16.77;;
77099;SDS011;66602;48.922;2.414;2023-02-13T00:23:46;27.85;;;16.45;;
77099;SDS011;66602;48.922;2.414;2023-02-13T00:26:12;28.60;;;16.83;;
77099;SDS011;66602;48.922;2.414;2023-02-13T00:28:39;19.45;;;15.25;;
77099;SDS011;66602;48.922;2.414;2023-02-13T00:33:31;33.67;;;18.60;;
77099;SDS011;66602;48.922;2.414;2023-02-13T00:36:07;32.20;;;18.65;;
77099;SDS011;66602;48.922;2.414;2023-02-13T00:38:37;25.60;;;16.40;;
77099;SDS011;66602;48.922;2.414;2023-02-13T00:41:04;26.67;;;16.00;;
77099;SDS011;66602;48.922;2.414;2023-02-13T00:43:30;30.40;;;16.67;;
77099;SDS011;66602;48.922;2.414;2023-02-13T00:45:56;30.08;;;18.52;;
77099;SDS011;66602;48.922;2.414;2023-02-13T00:48:23;35.53;;;18.40;;
77099;SDS011;66602;48.922;2.414;2023-02-13T00:50:49;38.63;;;19.60;;
77099;SDS011;66602;48.922;2.414;2023-02-13T00:53:16;35.40;;;19.45;;
77099;SDS011;66602;48.922;2.414;2023-02-13T00:55:43;34.47;;;18.13;;
77099;SDS011;66602;48.922;2.414;2023-02-13T00:58:08;29.25;;;16.98;;
77099;SDS011;66602;48.922;2.414;2023-02-13T01:00:34;45.10;;;21.92;;
77099;SDS011;66602;48.922;2.414;2023-02-13T01:02:59;40.13;;;20.38;;
77099;SDS011;66602;48.922;2.414;2023-02-13T01:05:25;45.15;;;21.95;;
77099;SDS011;66602;48.922;2.414;2023-02-13T01:07:52;34.05;;;19.17;;
77099;SDS011;66602;48.922;2.414;2023-02-13T01:10:18;36.42;;;18.48;;
77099;SDS011;66602;48.922;2.414;2023-02-13T01:12:43;35.50;;;17.63;;
77099;SDS011;66602;48.922;2.414;2023-02-13T01:15:09;31.88;;;16.80;;
77099;SDS011;66602;48.922;2.414;2023-02-13T01:17:34;26.10;;;15.65;;
77099;SDS011;66602;48.922;2.414;2023-02-13T01:20:00;29.70;;;17.02;;
77099;SDS011;66602;48.922;2.414;2023-02-13T01:22:25;24.73;;;15.77;;
77099;SDS011;66602;48.922;2.414;2023-02-13T01:24:51;29.52;;;18.17;;
77099;SDS011;66602;48.922;2.414;2023-02-13T01:27:16;27.17;;;16.10;;
77099;SDS011;66602;48.922;2.414;2023-02-13T01:29:42;34.53;;;18.15;;
77099;SDS011;66602;48.922;2.414;2023-02-13T01:32:07;27.25;;;16.17;;
77099;SDS011;66602;48.922;2.414;2023-02-13T01:34:33;34.90;;;19.38;;
77099;SDS011;66602;48.922;2.414;2023-02-13T01:36:58;32.25;;;18.10;;
77099;SDS011;66602;48.922;2.414;2023-02-13T01:39:24;29.77;;;17.42;;
77099;SDS011;66602;48.922;2.414;2023-02-13T01:41:50;31.20;;;17.98;;
77099;SDS011;66602;48.922;2.414;2023-02-13T01:47:15;30.65;;;17.42;;
77099;SDS011;66602;48.922;2.414;2023-02-13T01:50:02;33.33;;;19.48;;
77099;SDS011;66602;48.922;2.414;2023-02-13T01:52:32;38.10;;;20.48;;
77099;SDS011;66602;48.922;2.414;2023-02-13T01:54:59;37.95;;;20.23;;
77099;SDS011;66602;48.922;2.414;2023-02-13T01:57:26;37.55;;;20.48;;
77099;SDS011;66602;48.922;2.414;2023-02-13T01:59:58;35.53;;;19.23;;
77099;SDS011;66602;48.922;2.414;2023-02-13T02:02:27;41.63;;;21.52;;
77099;SDS011;66602;48.922;2.414;2023-02-13T02:04:55;35.88;;;20.08;;
77099;SDS011;66602;48.922;2.414;2023-02-13T02:07:24;39.60;;;20.63;;
77099;SDS011;66602;48.922;2.414;2023-02-13T02:09:52;35.95;;;20.48;;
77099;SDS011;66602;48.922;2.414;2023-02-13T02:12:35;52.97;;;25.15;;
77099;SDS011;66602;48.922;2.414;2023-02-13T02:15:24;48.40;;;23.17;;
77099;SDS011;66602;48.922;2.414;2023-02-13T02:17:49;42.40;;;23.15;;
77099;SDS011;66602;48.922;2.414;2023-02-13T02:33:58;34.20;;;19.25;;
77099;SDS011;66602;48.922;2.414;2023-02-13T02:36:51;33.25;;;19.15;;
77099;SDS011;66602;48.922;2.414;2023-02-13T02:52:05;42.42;;;20.17;;
77099;SDS011;66602;48.922;2.414;2023-02-13T02:54:50;51.70;;;24.85;;
77099;SDS011;66602;48.922;2.414;2023-02-13T02:57:31;54.50;;;23.50;;
77099;SDS011;66602;48.922;2.414;2023-02-13T03:00:17;53.47;;;23.27;;
77099;SDS011;66602;48.922;2.414;2023-02-13T03:03:04;45.65;;;22.83;;
77099;SDS011;66602;48.922;2.414;2023-02-13T03:05:55;44.13;;;22.48;;
77099;SDS011;66602;48.922;2.414;2023-02-13T03:08:42;41.95;;;20.27;;
77099;SDS011;66602;48.922;2.414;2023-02-13T03:11:29;35.95;;;20.38;;
77099;SDS011;66602;48.922;2.414;2023-02-13T03:14:14;38.97;;;20.95;;
77099;SDS011;66602;48.922;2.414;2023-02-13T03:16:43;32.45;;;18.27;;
77099;SDS011;66602;48.922;2.414;2023-02-13T03:25:53;54.58;;;21.63;;
77099;SDS011;66602;48.922;2.414;2023-02-13T03:28:17;47.65;;;23.45;;
77099;SDS011;66602;48.922;2.414;2023-02-13T03:41:44;31.70;;;15.70;;
77099;SDS011;66602;48.922;2.414;2023-02-13T03:44:35;35.38;;;20.42;;
77099;SDS011;66602;48.922;2.414;2023-02-13T03:47:05;42.15;;;19.90;;
77099;SDS011;66602;48.922;2.414;2023-02-13T03:49:44;36.88;;;19.65;;
77099;SDS011;66602;48.922;2.414;2023-02-13T03:52:36;32.53;;;18.23;;
77099;SDS011;66602;48.922;2.414;2023-02-13T03:55:50;38.10;;;19.40;;
77099;SDS011;66602;48.922;2.414;2023-02-13T03:58:31;39.90;;;19.25;;
77099;SDS011;66602;48.922;2.414;2023-02-13T04:01:21;43.13;;;19.95;;
77099;SDS011;66602;48.922;2.414;2023-02-13T04:03:58;45.78;;;21.05;;
77099;SDS011;66602;48.922;2.414;2023-02-13T04:06:48;42.38;;;19.42;;
77099;SDS011;66602;48.922;2.414;2023-02-13T04:09:26;47.92;;;22.75;;
77099;SDS011;66602;48.922;2.414;2023-02-13T04:17:48;37.33;;;19.38;;
77099;SDS011;66602;48.922;2.414;2023-02-13T04:20:19;35.88;;;19.15;;
77099;SDS011;66602;48.922;2.414;2023-02-13T04:22:45;34.38;;;18.83;;
77099;SDS011;66602;48.922;2.414;2023-02-13T04:25:15;49.88;;;21.83;;
77099;SDS011;66602;48.922;2.414;2023-02-13T04:27:42;52.00;;;22.17;;
77099;SDS011;66602;48.922;2.414;2023-02-13T04:30:08;50.13;;;23.33;;
77099;SDS011;66602;48.922;2.414;2023-02-13T04:32:34;47.72;;;22.08;;
77099;SDS011;66602;48.922;2.414;2023-02-13T04:35:00;44.58;;;21.58;;
77099;SDS011;66602;48.922;2.414;2023-02-13T04:37:26;40.95;;;19.48;;
77099;SDS011;66602;48.922;2.414;2023-02-13T04:39:51;46.60;;;20.58;;
77099;SDS011;66602;48.922;2.414;2023-02-13T04:42:17;28.95;;;18.73;;
77099;SDS011;66602;48.922;2.414;2023-02-13T04:44:42;36.45;;;18.98;;
77099;SDS011;66602;48.922;2.414;2023-02-13T04:47:08;43.30;;;20.83;;
77099;SDS011;66602;48.922;2.414;2023-02-13T04:49:33;48.33;;;22.27;;
77099;SDS011;66602;48.922;2.414;2023-02-13T04:51:59;46.13;;;20.73;;
77099;SDS011;66602;48.922;2.414;2023-02-13T04:54:24;44.78;;;23.17;;
77099;SDS011;66602;48.922;2.414;2023-02-13T04:56:50;47.35;;;22.00;;
77099;SDS011;66602;48.922;2.414;2023-02-13T04:59:15;52.00;;;21.95;;
77099;SDS011;66602;48.922;2.414;2023-02-13T05:01:41;47.92;;;22.40;;
77099;SDS011;66602;48.922;2.414;2023-02-13T05:04:06;36.72;;;19.55;;
77099;SDS011;66602;48.922;2.414;2023-02-13T05:06:32;42.75;;;20.60;;
77099;SDS011;66602;48.922;2.414;2023-02-13T05:08:57;44.70;;;22.05;;
77099;SDS011;66602;48.922;2.414;2023-02-13T05:11:23;32.60;;;19.70;;
77099;SDS011;66602;48.922;2.414;2023-02-13T05:13:48;45.63;;;22.27;;
77099;SDS011;66602;48.922;2.414;2023-02-13T05:16:14;49.28;;;23.33;;
77099;SDS011;66602;48.922;2.414;2023-02-13T05:18:39;37.70;;;19.75;;
77099;SDS011;66602;48.922;2.414;2023-02-13T05:21:05;43.72;;;21.98;;
77099;SDS011;66602;48.922;2.414;2023-02-13T05:23:49;39.10;;;21.17;;
77099;SDS011;66602;48.922;2.414;2023-02-13T05:26:15;50.58;;;24.42;;
77099;SDS011;66602;48.922;2.414;2023-02-13T05:28:41;44.35;;;22.50;;
77099;SDS011;66602;48.922;2.414;2023-02-13T05:33:50;35.65;;;18.73;;
77099;SDS011;66602;48.922;2.414;2023-02-13T05:36:16;37.85;;;19.23;;
77099;SDS011;66602;48.922;2.414;2023-02-13T05:38:41;41.65;;;21.90;;
77099;SDS011;66602;48.922;2.414;2023-02-13T05:41:07;45.83;;;23.02;;
77099;SDS011;66602;48.922;2.414;2023-02-13T05:43:32;44.15;;;20.13;;
77099;SDS011;66602;48.922;2.414;2023-02-13T05:46:01;33.78;;;19.40;;
77099;SDS011;66602;48.922;2.414;2023-02-13T05:48:31;45.42;;;21.63;;
77099;SDS011;66602;48.922;2.414;2023-02-13T05:50:57;38.03;;;20.10;;
77099;SDS011;66602;48.922;2.414;2023-02-13T05:53:23;39.70;;;19.60;;
77099;SDS011;66602;48.922;2.414;2023-02-13T05:55:49;33.70;;;18.73;;
77099;SDS011;66602;48.922;2.414;2023-02-13T05:58:18;35.20;;;18.13;;
77099;SDS011;66602;48.922;2.414;2023-02-13T06:00:45;35.72;;;19.73;;
77099;SDS011;66602;48.922;2.414;2023-02-13T06:03:11;43.20;;;22.10;;
77099;SDS011;66602;48.922;2.414;2023-02-13T06:05:36;44.13;;;21.38;;
77099;SDS011;66602;48.922;2.414;2023-02-13T06:08:02;46.17;;;22.55;;
77099;SDS011;66602;48.922;2.414;2023-02-13T06:10:27;53.08;;;23.42;;
77099;SDS011;66602;48.922;2.414;2023-02-13T06:12:53;52.83;;;24.33;;
77099;SDS011;66602;48.922;2.414;2023-02-13T06:15:19;54.55;;;24.50;;
77099;SDS011;66602;48.922;2.414;2023-02-13T06:17:44;60.33;;;25.65;;
77099;SDS011;66602;48.922;2.414;2023-02-13T06:20:10;65.65;;;26.63;;
77099;SDS011;66602;48.922;2.414;2023-02-13T06:22:35;50.67;;;23.25;;
77099;SDS011;66602;48.922;2.414;2023-02-13T06:25:01;46.83;;;21.40;;
77099;SDS011;66602;48.922;2.414;2023-02-13T06:27:26;43.42;;;21.02;;
77099;SDS011;66602;48.922;2.414;2023-02-13T06:29:52;50.58;;;25.88;;
77099;SDS011;66602;48.922;2.414;2023-02-13T06:32:18;60.15;;;27.15;;
77099;SDS011;66602;48.922;2.414;2023-02-13T06:34:44;54.85;;;22.80;;
77099;SDS011;66602;48.922;2.414;2023-02-13T06:37:09;63.15;;;25.92;;
77099;SDS011;66602;48.922;2.414;2023-02-13T06:39:35;61.15;;;25.48;;
77099;SDS011;66602;48.922;2.414;2023-02-13T06:42:01;67.85;;;25.73;;
77099;SDS011;66602;48.922;2.414;2023-02-13T06:44:26;65.57;;;25.52;;
77099;SDS011;66602;48.922;2.414;2023-02-13T06:46:51;55.40;;;25.02;;
77099;SDS011;66602;48.922;2.414;2023-02-13T06:49:17;48.50;;;22.63;;
77099;SDS011;66602;48.922;2.414;2023-02-13T06:51:43;58.17;;;23.65;;
77099;SDS011;66602;48.922;2.414;2023-02-13T06:54:09;62.78;;;27.30;;
77099;SDS011;66602;48.922;2.414;2023-02-13T06:56:34;61.30;;;24.13;;
77099;SDS011;66602;48.922;2.414;2023-02-13T06:59:00;63.00;;;25.90;;
77099;SDS011;66602;48.922;2.414;2023-02-13T07:01:25;66.07;;;25.15;;
77099;SDS011;66602;48.922;2.414;2023-02-13T07:03:51;65.68;;;26.05;;
77099;SDS011;66602;48.922;2.414;2023-02-13T07:06:17;64.47;;;26.77;;
77099;SDS011;66602;48.922;2.414;2023-02-13T07:08:43;71.82;;;25.60;;
77099;SDS011;66602;48.922;2.414;2023-02-13T07:11:15;80.13;;;27.27;;
77099;SDS011;66602;48.922;2.414;2023-02-13T07:13:41;57.55;;;24.38;;
77099;SDS011;66602;48.922;2.414;2023-02-13T07:16:07;65.75;;;25.90;;
77099;SDS011;66602;48.922;2.414;2023-02-13T07:18:32;75.45;;;29.52;;
77099;SDS011;66602;48.922;2.414;2023-02-13T07:20:58;87.50;;;29.88;;
77099;SDS011;66602;48.922;2.414;2023-02-13T07:23:23;75.15;;;27.42;;
77099;SDS011;66602;48.922;2.414;2023-02-13T07:25:49;68.65;;;26.50;;
77099;SDS011;66602;48.922;2.414;2023-02-13T07:28:15;82.55;;;29.90;;
77099;SDS011;66602;48.922;2.414;2023-02-13T07:30:40;64.05;;;23.95;;
77099;SDS011;66602;48.922;2.414;2023-02-13T07:33:06;56.05;;;23.23;;
77099;SDS011;66602;48.922;2.414;2023-02-13T07:35:31;57.90;;;25.10;;
77099;SDS011;66602;48.922;2.414;2023-02-13T07:37:57;65.88;;;27.33;;
77099;SDS011;66602;48.922;2.414;2023-02-13T07:40:24;70.10;;;29.98;;
77099;SDS011;66602;48.922;2.414;2023-02-13T07:42:50;78.45;;;27.88;;
77099;SDS011;66602;48.922;2.414;2023-02-13T07:45:15;78.45;;;26.83;;
77099;SDS011;66602;48.922;2.414;2023-02-13T07:47:41;63.05;;;26.17;;
77099;SDS011;66602;48.922;2.414;2023-02-13T07:50:07;67.82;;;26.42;;
77099;SDS011;66602;48.922;2.414;2023-02-13T07:52:33;62.40;;;26.00;;
77099;SDS011;66602;48.922;2.414;2023-02-13T07:55:01;59.75;;;24.55;;
77099;SDS011;66602;48.922;2.414;2023-02-13T07:57:26;54.58;;;24.83;;
77099;SDS011;66602;48.922;2.414;2023-02-13T07:59:51;64.25;;;26.27;;
77099;SDS011;66602;48.922;2.414;2023-02-13T08:02:17;88.60;;;32.13;;
77099;SDS011;66602;48.922;2.414;2023-02-13T08:04:42;98.00;;;32.60;;
77099;SDS011;66602;48.922;2.414;2023-02-13T08:07:11;103.95;;;36.38;;
77099;SDS011;66602;48.922;2.414;2023-02-13T08:09:38;89.60;;;32.70;;
77099;SDS011;66602;48.922;2.414;2023-02-13T08:14:47;84.38;;;28.42;;
77099;SDS011;66602;48.922;2.414;2023-02-13T08:17:13;80.90;;;31.45;;
77099;SDS011;66602;48.922;2.414;2023-02-13T08:19:38;75.43;;;31.00;;
77099;SDS011;66602;48.922;2.414;2023-02-13T08:22:04;64.18;;;27.98;;
77099;SDS011;66602;48.922;2.414;2023-02-13T08:24:30;61.78;;;26.20;;
77099;SDS011;66602;48.922;2.414;2023-02-13T08:26:56;69.95;;;30.23;;
77099;SDS011;66602;48.922;2.414;2023-02-13T08:29:22;66.30;;;29.83;;
77099;SDS011;66602;48.922;2.414;2023-02-13T08:31:47;56.40;;;25.20;;
77099;SDS011;66602;48.922;2.414;2023-02-13T08:34:13;68.53;;;27.83;;
77099;SDS011;66602;48.922;2.414;2023-02-13T08:36:38;70.75;;;29.77;;
77099;SDS011;66602;48.922;2.414;2023-02-13T08:39:04;62.42;;;26.88;;
77099;SDS011;66602;48.922;2.414;2023-02-13T08:41:29;66.68;;;27.80;;
77099;SDS011;66602;48.922;2.414;2023-02-13T08:43:55;53.42;;;26.83;;
77099;SDS011;66602;48.922;2.414;2023-02-13T08:46:20;62.72;;;28.23;;
77099;SDS011;66602;48.922;2.414;2023-02-13T08:48:46;71.70;;;29.88;;
77099;SDS011;66602;48.922;2.414;2023-02-13T08:51:12;63.40;;;28.75;;
77099;SDS011;66602;48.922;2.414;2023-02-13T08:53:39;64.97;;;29.50;;
77099;SDS011;66602;48.922;2.414;2023-02-13T08:56:06;60.13;;;29.10;;
77099;SDS011;66602;48.922;2.414;2023-02-13T08:58:31;60.00;;;28.90;;
77099;SDS011;66602;48.922;2.414;2023-02-13T09:00:57;51.75;;;28.85;;
77099;SDS011;66602;48.922;2.414;2023-02-13T09:03:22;50.25;;;26.83;;
77099;SDS011;66602;48.922;2.414;2023-02-13T09:05:48;49.03;;;24.90;;
77099;SDS011;66602;48.922;2.414;2023-02-13T09:08:14;64.55;;;27.83;;
77099;SDS011;66602;48.922;2.414;2023-02-13T09:10:40;52.75;;;25.13;;
77099;SDS011;66602;48.922;2.414;2023-02-13T09:13:07;63.47;;;27.67;;
77099;SDS011;66602;48.922;2.414;2023-02-13T09:15:33;61.95;;;29.17;;
77099;SDS011;66602;48.922;2.414;2023-02-13T09:18:03;64.13;;;27.63;;
77099;SDS011;66602;48.922;2.414;2023-02-13T09:20:28;52.95;;;26.30;;
77099;SDS011;66602;48.922;2.414;2023-02-13T09:22:54;51.45;;;26.65;;
77099;SDS011;66602;48.922;2.414;2023-02-13T09:25:20;60.10;;;25.17;;
77099;SDS011;66602;48.922;2.414;2023-02-13T09:27:46;41.80;;;24.70;;
77099;SDS011;66602;48.922;2.414;2023-02-13T09:30:11;41.95;;;24.17;;
77099;SDS011;66602;48.922;2.414;2023-02-13T09:32:46;47.00;;;26.13;;
77099;SDS011;66602;48.922;2.414;2023-02-13T09:35:12;46.03;;;25.60;;
77099;SDS011;66602;48.922;2.414;2023-02-13T09:37:39;52.97;;;24.95;;
77099;SDS011;66602;48.922;2.414;2023-02-13T09:40:05;40.45;;;22.77;;
77099;SDS011;66602;48.922;2.414;2023-02-13T09:42:39;39.33;;;22.27;;
77099;SDS011;66602;48.922;2.414;2023-02-13T09:45:04;40.20;;;22.10;;
77099;SDS011;66602;48.922;2.414;2023-02-13T09:47:35;40.83;;;22.48;;
77099;SDS011;66602;48.922;2.414;2023-02-13T09:50:10;36.67;;;21.95;;
77099;SDS011;66602;48.922;2.414;2023-02-13T09:52:40;44.25;;;22.25;;
77099;SDS011;66602;48.922;2.414;2023-02-13T09:55:15;34.00;;;21.77;;
77099;SDS011;66602;48.922;2.414;2023-02-13T10:00:33;42.67;;;22.08;;
77099;SDS011;66602;48.922;2.414;2023-02-13T10:17:37;32.30;;;21.40;;
77099;SDS011;66602;48.922;2.414;2023-02-13T10:20:06;32.67;;;21.05;;
77099;SDS011;66602;48.922;2.414;2023-02-13T10:22:51;24.30;;;18.42;;
77099;SDS011;66602;48.922;2.414;2023-02-13T10:25:24;22.83;;;18.48;;
77099;SDS011;66602;48.922;2.414;2023-02-13T10:27:54;23.88;;;18.58;;
77099;SDS011;66602;48.922;2.414;2023-02-13T10:30:24;21.63;;;18.80;;
77099;SDS011;66602;48.922;2.414;2023-02-13T10:33:12;31.33;;;18.98;;
77099;SDS011;66602;48.922;2.414;2023-02-13T10:38:27;28.02;;;19.00;;
77099;SDS011;66602;48.922;2.414;2023-02-13T10:43:46;21.30;;;17.85;;
77099;SDS011;66602;48.922;2.414;2023-02-13T10:46:50;21.90;;;17.13;;
77099;SDS011;66602;48.922;2.414;2023-02-13T10:55:59;26.02;;;17.92;;
77099;SDS011;66602;48.922;2.414;2023-02-13T10:58:05;20.20;;;18.08;;
77099;SDS011;66602;48.922;2.414;2023-02-13T11:03:23;26.83;;;19.40;;
77099;SDS011;66602;48.922;2.414;2023-02-13T11:05:51;23.45;;;19.48;;
77099;SDS011;66602;48.922;2.414;2023-02-13T11:08:20;21.80;;;17.90;;
77099;SDS011;66602;48.922;2.414;2023-02-13T11:10:50;31.08;;;18.85;;
77099;SDS011;66602;48.922;2.414;2023-02-13T11:13:20;22.90;;;18.00;;
77099;SDS011;66602;48.922;2.414;2023-02-13T11:15:58;25.48;;;18.65;;
77099;SDS011;66602;48.922;2.414;2023-02-13T11:18:32;23.15;;;18.27;;
77099;SDS011;66602;48.922;2.414;2023-02-13T11:26:15;25.75;;;18.48;;
77099;SDS011;66602;48.922;2.414;2023-02-13T11:28:55;24.02;;;18.20;;
77099;SDS011;66602;48.922;2.414;2023-02-13T11:31:31;20.52;;;18.40;;
77099;SDS011;66602;48.922;2.414;2023-02-13T11:33:59;19.45;;;17.55;;
77099;SDS011;66602;48.922;2.414;2023-02-13T11:39:17;26.42;;;18.23;;
77099;SDS011;66602;48.922;2.414;2023-02-13T11:41:50;24.03;;;19.77;;
77099;SDS011;66602;48.922;2.414;2023-02-13T11:46:51;20.70;;;18.60;;
77099;SDS011;66602;48.922;2.414;2023-02-13T11:49:19;20.33;;;18.20;;
77099;SDS011;66602;48.922;2.414;2023-02-13T11:51:49;23.40;;;18.38;;
77099;SDS011;66602;48.922;2.414;2023-02-13T11:54:22;19.02;;;17.08;;
77099;SDS011;66602;48.922;2.414;2023-02-13T11:56:55;22.60;;;17.73;;
77099;SDS011;66602;48.922;2.414;2023-02-13T11:59:26;21.40;;;17.73;;
77099;SDS011;66602;48.922;2.414;2023-02-13T12:02:15;19.77;;;17.77;;
77099;SDS011;66602;48.922;2.414;2023-02-13T12:04:48;24.35;;;19.90;;
77099;SDS011;66602;48.922;2.414;2023-02-13T12:07:27;23.75;;;19.75;;
77099;SDS011;66602;48.922;2.414;2023-02-13T12:09:59;20.05;;;18.15;;
77099;SDS011;66602;48.922;2.414;2023-02-13T12:12:37;17.50;;;15.95;;
77099;SDS011;66602;48.922;2.414;2023-02-13T12:15:18;19.15;;;17.27;;
77099;SDS011;66602;48.922;2.414;2023-02-13T12:18:36;18.85;;;16.77;;
77099;SDS011;66602;48.922;2.414;2023-02-13T12:44:00;21.33;;;17.05;;
77099;SDS011;66602;48.922;2.414;2023-02-13T12:46:39;18.40;;;16.55;;
77099;SDS011;66602;48.922;2.414;2023-02-13T12:50:06;17.25;;;15.50;;
77099;SDS011;66602;48.922;2.414;2023-02-13T12:55:50;17.80;;;16.17;;
77099;SDS011;66602;48.922;2.414;2023-02-13T13:12:38;17.92;;;15.98;;
77099;SDS011;66602;48.922;2.414;2023-02-13T13:23:12;16.38;;;14.82;;
77099;SDS011;66602;48.922;2.414;2023-02-13T13:28:26;17.38;;;15.75;;
77099;SDS011;66602;48.922;2.414;2023-02-13T13:30:55;16.63;;;15.13;;
77099;SDS011;66602;48.922;2.414;2023-02-13T13:33:23;17.30;;;15.52;;
77099;SDS011;66602;48.922;2.414;2023-02-13T13:38:36;16.58;;;15.13;;
77099;SDS011;66602;48.922;2.414;2023-02-13T13:43:57;16.48;;;15.02;;
77099;SDS011;66602;48.922;2.414;2023-02-13T13:49:33;15.48;;;14.07;;
77099;SDS011;66602;48.922;2.414;2023-02-13T13:54:55;15.90;;;14.50;;
77099;SDS011;66602;48.922;2.414;2023-02-13T13:57:25;16.35;;;14.85;;
77099;SDS011;66602;48.922;2.414;2023-02-13T13:59:56;15.70;;;14.32;;
77099;SDS011;66602;48.922;2.414;2023-02-13T14:02:26;14.90;;;13.50;;
77099;SDS011;66602;48.922;2.414;2023-02-13T14:07:50;15.55;;;14.00;;
77099;SDS011;66602;48.922;2.414;2023-02-13T14:17:58;14.48;;;13.38;;
77099;SDS011;66602;48.922;2.414;2023-02-13T14:20:31;15.90;;;14.50;;
77099;SDS011;66602;48.922;2.414;2023-02-13T14:31:32;14.48;;;13.15;;
77099;SDS011;66602;48.922;2.414;2023-02-13T14:34:00;16.30;;;13.57;;
77099;SDS011;66602;48.922;2.414;2023-02-13T14:36:39;13.88;;;12.85;;
77099;SDS011;66602;48.922;2.414;2023-02-13T14:39:15;14.77;;;13.48;;
77099;SDS011;66602;48.922;2.414;2023-02-13T14:44:24;15.20;;;13.77;;
77099;SDS011;66602;48.922;2.414;2023-02-13T14:46:56;15.90;;;14.27;;
77099;SDS011;66602;48.922;2.414;2023-02-13T14:49:42;16.58;;;13.60;;
77099;SDS011;66602;48.922;2.414;2023-02-13T14:52:15;15.27;;;13.88;;
77099;SDS011;66602;48.922;2.414;2023-02-13T14:54:53;16.48;;;14.75;;
77099;SDS011;66602;48.922;2.414;2023-02-13T15:03:12;18.40;;;15.60;;
77099;SDS011;66602;48.922;2.414;2023-02-13T15:05:51;15.55;;;13.80;;
77099;SDS011;66602;48.922;2.414;2023-02-13T15:08:21;15.27;;;13.88;;
77099;SDS011;66602;48.922;2.414;2023-02-13T15:10:51;14.52;;;13.05;;
77099;SDS011;66602;48.922;2.414;2023-02-13T15:13:23;14.05;;;12.80;;
77099;SDS011;66602;48.922;2.414;2023-02-13T15:15:56;16.20;;;14.57;;
77099;SDS011;66602;48.922;2.414;2023-02-13T15:18:26;15.30;;;13.90;;
77099;SDS011;66602;48.922;2.414;2023-02-13T15:20:55;17.85;;;13.88;;
77099;SDS011;66602;48.922;2.414;2023-02-13T15:23:27;19.02;;;13.38;;
77099;SDS011;66602;48.922;2.414;2023-02-13T15:25:55;15.07;;;13.55;;
77099;SDS011;66602;48.922;2.414;2023-02-13T15:28:30;13.32;;;12.00;;
77099;SDS011;66602;48.922;2.414;2023-02-13T15:33:27;15.23;;;13.73;;
77099;SDS011;66602;48.922;2.414;2023-02-13T15:35:58;14.88;;;13.38;;
77099;SDS011;66602;48.922;2.414;2023-02-13T15:40:52;14.10;;;12.93;;
77099;SDS011;66602;48.922;2.414;2023-02-13T15:43:34;14.07;;;12.73;;
77099;SDS011;66602;48.922;2.414;2023-02-13T15:46:05;14.80;;;13.30;;
77099;SDS011;66602;48.922;2.414;2023-02-13T15:48:42;15.32;;;13.60;;
77099;SDS011;66602;48.922;2.414;2023-02-13T15:51:08;14.77;;;12.77;;
77099;SDS011;66602;48.922;2.414;2023-02-13T15:53:57;21.20;;;14.30;;
77099;SDS011;66602;48.922;2.414;2023-02-13T15:56:30;14.80;;;13.23;;
77099;SDS011;66602;48.922;2.414;2023-02-13T15:58:57;20.42;;;14.40;;
77099;SDS011;66602;48.922;2.414;2023-02-13T16:01:23;17.65;;;13.45;;
77099;SDS011;66602;48.922;2.414;2023-02-13T16:03:59;16.38;;;14.13;;
77099;SDS011;66602;48.922;2.414;2023-02-13T16:06:27;15.98;;;13.80;;
77099;SDS011;66602;48.922;2.414;2023-02-13T16:08:54;16.92;;;14.90;;
77099;SDS011;66602;48.922;2.414;2023-02-13T16:11:29;17.17;;;13.95;;
77099;SDS011;66602;48.922;2.414;2023-02-13T16:22:14;18.80;;;14.38;;
77099;SDS011;66602;48.922;2.414;2023-02-13T16:24:50;14.73;;;13.25;;
77099;SDS011;66602;48.922;2.414;2023-02-13T16:27:17;20.10;;;13.18;;
77099;SDS011;66602;48.922;2.414;2023-02-13T16:29:55;16.90;;;13.45;;
77099;SDS011;66602;48.922;2.414;2023-02-13T16:32:27;14.93;;;12.98;;
77099;SDS011;66602;48.922;2.414;2023-02-13T16:35:15;15.40;;;13.50;;
77099;SDS011;66602;48.922;2.414;2023-02-13T16:37:52;18.60;;;13.27;;
77099;SDS011;66602;48.922;2.414;2023-02-13T16:40:42;18.38;;;14.07;;
77099;SDS011;66602;48.922;2.414;2023-02-13T16:53:57;15.77;;;12.30;;
77099;SDS011;66602;48.922;2.414;2023-02-13T16:56:26;13.20;;;11.90;;
77099;SDS011;66602;48.922;2.414;2023-02-13T16:59:03;15.18;;;13.10;;
77099;SDS011;66602;48.922;2.414;2023-02-13T17:01:47;18.52;;;13.30;;
77099;SDS011;66602;48.922;2.414;2023-02-13T17:04:20;16.63;;;13.05;;
77099;SDS011;66602;48.922;2.414;2023-02-13T17:09:56;13.85;;;10.50;;
77099;SDS011;66602;48.922;2.414;2023-02-13T17:12:28;11.43;;;10.10;;
77099;SDS011;66602;48.922;2.414;2023-02-13T17:14:56;13.02;;;10.80;;
77099;SDS011;66602;48.922;2.414;2023-02-13T17:17:23;19.48;;;14.23;;
77099;SDS011;66602;48.922;2.414;2023-02-13T17:19:48;16.88;;;12.65;;
77099;SDS011;66602;48.922;2.414;2023-02-13T17:22:17;16.35;;;13.43;;
77099;SDS011;66602;48.922;2.414;2023-02-13T17:24:56;16.48;;;13.18;;
77099;SDS011;66602;48.922;2.414;2023-02-13T17:27:22;21.58;;;13.23;;
77099;SDS011;66602;48.922;2.414;2023-02-13T17:29:47;15.73;;;12.32;;
77099;SDS011;66602;48.922;2.414;2023-02-13T17:32:15;18.85;;;13.68;;
77099;SDS011;66602;48.922;2.414;2023-02-13T17:34:42;24.38;;;16.08;;
77099;SDS011;66602;48.922;2.414;2023-02-13T17:37:24;17.13;;;13.20;;
77099;SDS011;66602;48.922;2.414;2023-02-13T17:39:51;17.85;;;13.48;;
77099;SDS011;66602;48.922;2.414;2023-02-13T17:42:19;18.17;;;14.27;;
77099;SDS011;66602;48.922;2.414;2023-02-13T17:44:47;16.63;;;13.50;;
77099;SDS011;66602;48.922;2.414;2023-02-13T17:47:13;22.00;;;15.05;;
77099;SDS011;66602;48.922;2.414;2023-02-13T17:49:38;16.58;;;13.68;;
77099;SDS011;66602;48.922;2.414;2023-02-13T17:52:04;23.92;;;14.82;;
77099;SDS011;66602;48.922;2.414;2023-02-13T17:54:29;25.25;;;16.02;;
77099;SDS011;66602;48.922;2.414;2023-02-13T17:56:57;24.75;;;16.20;;
77099;SDS011;66602;48.922;2.414;2023-02-13T17:59:23;26.00;;;15.82;;
77099;SDS011;66602;48.922;2.414;2023-02-13T18:01:49;19.83;;;14.40;;
77099;SDS011;66602;48.922;2.414;2023-02-13T18:04:15;20.13;;;14.60;;
77099;SDS011;66602;48.922;2.414;2023-02-13T18:06:40;28.70;;;16.85;;
77099;SDS011;66602;48.922;2.414;2023-02-13T18:09:06;25.75;;;17.10;;
77099;SDS011;66602;48.922;2.414;2023-02-13T18:11:31;22.83;;;15.63;;
77099;SDS011;66602;48.922;2.414;2023-02-13T18:13:57;22.80;;;14.68;;
77099;SDS011;66602;48.922;2.414;2023-02-13T18:16:22;24.38;;;15.05;;
77099;SDS011;66602;48.922;2.414;2023-02-13T18:18:49;19.85;;;13.20;;